createdAt,value
2023-01-17T00:01:46.500Z,65.11
2023-01-17T00:04:32.211Z,65.17
2023-01-17T00:07:17.424Z,65.28
2023-01-17T00:09:53.374Z,65.31
2023-01-17T00:12:27.601Z,65.24
2023-01-17T00:14:55.819Z,65.77
2023-01-17T00:17:23.537Z,65.41
2023-01-17T00:20:09.176Z,65.65
2023-01-17T00:22:55.147Z,65.78
2023-01-17T00:25:55.694Z,65.65
2023-01-17T00:28:23.477Z,65.62
2023-01-17T00:30:50.464Z,65.72
2023-01-17T00:33:17.381Z,65.67
2023-01-17T00:35:44.533Z,65.79
2023-01-17T00:38:14.773Z,65.51
2023-01-17T00:40:43.972Z,65.59
2023-01-17T00:43:31.921Z,65.91
2023-01-17T00:46:17.548Z,65.85
2023-01-17T00:49:02.891Z,66.05
2023-01-17T00:51:50.048Z,66.06
2023-01-17T00:54:35.591Z,65.77
2023-01-17T00:57:21.441Z,65.92
2023-01-17T01:00:07.136Z,66.22
2023-01-17T01:02:53.473Z,66.12
2023-01-17T01:05:39.940Z,66.16
2023-01-17T01:08:45.423Z,66.35
2023-01-17T01:11:37.710Z,66.42
2023-01-17T01:14:25.326Z,66.22
2023-01-17T01:17:10.538Z,66.05
2023-01-17T01:19:55.640Z,66.32
2023-01-17T01:22:40.843Z,66.54
2023-01-17T01:25:26.655Z,66.23
2023-01-17T01:28:11.859Z,66.27
2023-01-17T01:30:57.079Z,66.49
2023-01-17T01:33:23.865Z,66.05
2023-01-17T01:35:55.467Z,66.12
2023-01-17T01:38:24.797Z,66.01
2023-01-17T01:40:55.074Z,66.14
2023-01-17T01:43:42.508Z,65.86
2023-01-17T01:46:14.531Z,65.82
2023-01-17T01:48:49.347Z,65.93
2023-01-17T01:51:24.132Z,65.97
2023-01-17T01:53:54.968Z,66.06
2023-01-17T01:56:23.520Z,65.76
2023-01-17T01:58:52.128Z,66.03
2023-01-17T02:01:19.067Z,66.14
2023-01-17T02:03:46.579Z,65.82
2023-01-17T02:06:40.010Z,66.05
2023-01-17T02:09:10.590Z,66.16
2023-01-17T02:11:38.976Z,66.64
2023-01-17T02:14:06.500Z,66.55
2023-01-17T02:17:03.940Z,66.46
2023-01-17T02:20:14.891Z,66.53
2023-01-17T02:23:58.611Z,66.59
2023-01-17T02:26:53.975Z,66.76
2023-01-17T02:30:15.672Z,66.86
2023-01-17T02:33:14.861Z,66.73
2023-01-17T02:35:54.639Z,66.73
2023-01-17T02:38:40.395Z,66.76
2023-01-17T02:41:15.564Z,66.91
2023-01-17T02:43:42.490Z,66.80
2023-01-17T02:46:09.976Z,67.05
2023-01-17T02:48:37.805Z,66.72
2023-01-17T02:51:44.830Z,66.86
2023-01-17T02:54:52.307Z,66.60
2023-01-17T02:57:46.163Z,66.70
2023-01-17T03:00:27.389Z,66.77
2023-01-17T03:03:29.968Z,67.29
2023-01-17T03:06:29.179Z,66.96
2023-01-17T03:08:55.932Z,67.08
2023-01-17T03:11:22.973Z,67.09
2023-01-17T03:13:56.694Z,66.94
2023-01-17T03:16:26.673Z,67.13
2023-01-17T03:18:56.057Z,67.10
2023-01-17T03:21:24.051Z,66.94
2023-01-17T03:23:50.989Z,67.25
2023-01-17T03:26:18.192Z,67.09
2023-01-17T03:28:45.177Z,67.14
2023-01-17T03:31:19.942Z,66.88
2023-01-17T03:33:46.899Z,67.11
2023-01-17T03:36:13.730Z,67.07
2023-01-17T03:38:40.517Z,66.94
2023-01-17T03:41:07.481Z,67.00
2023-01-17T03:43:34.376Z,67.04
2023-01-17T03:46:23.242Z,67.03
2023-01-17T03:48:50.460Z,67.07
2023-01-17T03:51:17.754Z,66.99
2023-01-17T03:53:46.849Z,66.99
2023-01-17T03:56:14.312Z,66.99
2023-01-17T03:58:41.092Z,67.46
2023-01-17T04:01:08.073Z,66.98
2023-01-17T04:03:34.883Z,67.27
2023-01-17T04:06:01.659Z,67.46
2023-01-17T04:08:28.432Z,67.23
2023-01-17T04:10:55.179Z,67.25
2023-01-17T04:13:22.036Z,67.33
2023-01-17T04:15:50.480Z,67.32
2023-01-17T04:18:19.585Z,67.30
2023-01-17T04:20:46.864Z,67.18
2023-01-17T04:23:13.657Z,67.20
2023-01-17T04:25:40.645Z,67.13
2023-01-17T04:28:07.464Z,67.34
2023-01-17T04:30:34.282Z,67.46
2023-01-17T04:33:01.526Z,67.28
2023-01-17T04:35:31.105Z,67.22
2023-01-17T04:37:58.143Z,67.24
2023-01-17T04:40:26.400Z,67.21
2023-01-17T04:42:54.353Z,67.23
2023-01-17T04:45:21.565Z,67.42
2023-01-17T04:47:48.376Z,67.14
2023-01-17T04:50:15.525Z,67.20
2023-01-17T04:52:42.351Z,67.35
2023-01-17T04:55:09.287Z,67.30
2023-01-17T04:57:36.340Z,67.48
2023-01-17T05:00:04.378Z,67.14
2023-01-17T05:02:31.196Z,67.08
2023-01-17T05:04:58.065Z,67.25
2023-01-17T05:07:24.852Z,66.93
2023-01-17T05:09:51.633Z,66.93
2023-01-17T05:12:18.386Z,67.03
2023-01-17T05:14:45.142Z,67.26
2023-01-17T05:17:11.958Z,67.16
2023-01-17T05:19:38.727Z,67.21
2023-01-17T05:22:15.001Z,66.89
2023-01-17T05:24:47.233Z,67.08
2023-01-17T05:27:14.983Z,67.18
2023-01-17T05:29:41.801Z,67.04
2023-01-17T05:32:08.773Z,66.88
2023-01-17T05:34:35.555Z,67.17
2023-01-17T05:37:02.549Z,66.92
2023-01-17T05:39:30.863Z,66.80
2023-01-17T05:41:58.096Z,66.93
2023-01-17T05:44:24.913Z,66.69
2023-01-17T05:46:51.670Z,66.91
2023-01-17T05:49:18.440Z,66.69
2023-01-17T05:51:45.174Z,66.86
2023-01-17T05:54:11.977Z,66.56
2023-01-17T05:56:38.721Z,66.66
2023-01-17T05:59:05.496Z,66.57
2023-01-17T06:01:32.245Z,66.22
2023-01-17T06:03:59.041Z,65.91
2023-01-17T06:06:25.799Z,66.05
2023-01-17T06:08:52.593Z,65.99
2023-01-17T06:11:19.395Z,66.04
2023-01-17T06:13:48.648Z,66.27
2023-01-17T06:16:15.574Z,66.03
2023-01-17T06:18:42.341Z,66.03
2023-01-17T06:21:09.119Z,66.26
2023-01-17T06:23:35.907Z,66.56
2023-01-17T06:26:04.457Z,66.27
2023-01-17T06:28:31.515Z,66.38
2023-01-17T06:30:59.786Z,66.35
2023-01-17T06:33:26.892Z,66.65
2023-01-17T06:35:54.120Z,66.41
2023-01-17T06:38:21.243Z,66.57
2023-01-17T06:40:48.346Z,66.61
2023-01-17T06:43:15.613Z,66.41
2023-01-17T06:45:42.428Z,66.52
2023-01-17T06:48:09.198Z,66.33
2023-01-17T06:50:35.954Z,66.44
2023-01-17T06:53:06.769Z,66.26
2023-01-17T06:55:35.104Z,66.12
2023-01-17T06:58:02.860Z,66.53
2023-01-17T07:00:31.393Z,66.29
2023-01-17T07:02:58.350Z,66.58
2023-01-17T07:05:25.205Z,66.34
2023-01-17T07:07:53.026Z,66.66
2023-01-17T07:10:19.863Z,66.46
2023-01-17T07:12:46.877Z,66.42
2023-01-17T07:15:13.973Z,66.82
2023-01-17T07:17:40.837Z,66.56
2023-01-17T07:20:08.683Z,66.61
2023-01-17T07:22:37.491Z,66.65
2023-01-17T07:25:04.773Z,66.79
2023-01-17T07:27:33.370Z,67.07
2023-01-17T07:30:00.425Z,66.70
2023-01-17T07:32:27.878Z,67.04
2023-01-17T07:34:57.332Z,66.86
2023-01-17T07:37:25.854Z,66.99
2023-01-17T07:39:53.712Z,67.13
2023-01-17T07:42:23.206Z,66.83
2023-01-17T07:44:50.753Z,67.11
2023-01-17T07:47:17.635Z,66.87
2023-01-17T07:49:44.500Z,66.79
2023-01-17T07:52:11.292Z,67.03
2023-01-17T07:54:38.326Z,66.84
2023-01-17T07:57:05.139Z,66.70
2023-01-17T07:59:33.701Z,66.97
2023-01-17T08:02:00.824Z,66.69
2023-01-17T08:04:28.945Z,66.86
2023-01-17T08:09:49.539Z,67.18
2023-01-17T08:12:16.980Z,67.16
2023-01-17T08:14:43.756Z,66.86
2023-01-17T08:17:16.395Z,66.95
2023-01-17T08:19:43.449Z,67.04
2023-01-17T08:22:12.006Z,67.02
2023-01-17T08:24:39.043Z,66.90
2023-01-17T08:27:05.845Z,67.38
2023-01-17T08:29:32.594Z,66.99
2023-01-17T08:31:59.385Z,67.05
2023-01-17T08:34:26.372Z,67.21
2023-01-17T08:36:53.907Z,66.84
2023-01-17T08:39:21.865Z,67.03
2023-01-17T08:41:48.623Z,67.20
2023-01-17T08:44:15.803Z,66.87
2023-01-17T08:46:44.305Z,67.13
2023-01-17T08:49:12.286Z,67.23
2023-01-17T08:51:39.863Z,67.35
2023-01-17T08:54:07.312Z,67.39
2023-01-17T08:56:35.515Z,67.62
2023-01-17T08:59:03.006Z,67.50
2023-01-17T09:01:30.361Z,67.56
2023-01-17T09:03:57.294Z,67.38
2023-01-17T09:06:24.061Z,67.28
2023-01-17T09:08:54.615Z,67.38
2023-01-17T09:11:21.532Z,67.16
2023-01-17T09:13:48.278Z,67.23
2023-01-17T09:16:15.123Z,66.96
2023-01-17T09:18:41.929Z,66.83
2023-01-17T09:21:17.610Z,66.27
2023-01-17T09:23:44.878Z,66.40
2023-01-17T09:26:24.265Z,66.60
2023-01-17T09:28:51.961Z,66.84
2023-01-17T09:31:21.330Z,66.83
2023-01-17T09:33:49.667Z,67.18
2023-01-17T09:36:16.545Z,67.06
2023-01-17T09:38:43.811Z,67.00
2023-01-17T09:41:24.232Z,66.87
2023-01-17T09:44:03.199Z,66.96
2023-01-17T09:46:37.609Z,67.26
2023-01-17T09:49:19.547Z,67.05
2023-01-17T09:51:46.382Z,67.28
2023-01-17T09:54:25.341Z,67.00
2023-01-17T09:57:14.650Z,66.91
2023-01-17T10:00:03.196Z,67.10
2023-01-17T10:02:45.642Z,67.02
2023-01-17T10:05:26.661Z,67.11
2023-01-17T10:08:46.471Z,67.17
2023-01-17T10:11:54.385Z,67.26
2023-01-17T10:14:49.201Z,67.44
2023-01-17T10:17:38.967Z,67.30
2023-01-17T10:20:34.156Z,67.13
2023-01-17T10:23:25.131Z,67.12
2023-01-17T10:25:54.596Z,67.16
2023-01-17T10:28:42.006Z,66.98
2023-01-17T10:31:20.563Z,67.04
2023-01-17T10:33:52.966Z,66.87
2023-01-17T10:36:31.196Z,66.89
2023-01-17T10:39:04.125Z,66.69
2023-01-17T10:42:00.676Z,66.75
2023-01-17T10:44:49.749Z,66.44
2023-01-17T10:47:24.563Z,66.48
2023-01-17T10:49:54.327Z,66.29
2023-01-17T10:52:56.698Z,66.32
2023-01-17T10:55:51.206Z,66.14
2023-01-17T10:58:18.013Z,66.17
2023-01-17T11:00:55.686Z,65.95
2023-01-17T11:03:23.817Z,65.71
2023-01-17T11:06:24.018Z,65.73
2023-01-17T11:09:00.477Z,65.87
2023-01-17T11:11:33.588Z,65.46
2023-01-17T11:14:05.464Z,65.53
2023-01-17T11:16:32.857Z,65.99
2023-01-17T11:19:36.344Z,65.59
2023-01-17T11:22:06.618Z,65.42
2023-01-17T11:24:40.103Z,65.49
2023-01-17T11:27:08.448Z,65.45
2023-01-17T11:29:39.009Z,65.42
2023-01-17T11:32:31.100Z,65.25
2023-01-17T11:35:12.750Z,65.42
2023-01-17T11:37:51.057Z,65.28
2023-01-17T11:40:36.271Z,65.02
2023-01-17T11:43:12.666Z,65.08
2023-01-17T11:45:40.941Z,65.00
2023-01-17T11:48:11.106Z,64.84
2023-01-17T11:50:54.115Z,64.84
2023-01-17T11:53:30.392Z,64.56
2023-01-17T11:56:17.035Z,64.88
2023-01-17T11:58:45.812Z,64.88
2023-01-17T12:02:31.942Z,65.15
2023-01-17T12:05:29.831Z,65.05
2023-01-17T12:08:08.424Z,65.03
2023-01-17T12:11:02.551Z,64.78
2023-01-17T12:14:02.471Z,65.04
2023-01-17T12:16:57.704Z,64.95
2023-01-17T12:19:34.287Z,64.81
2023-01-17T12:22:20.881Z,64.51
2023-01-17T12:25:25.629Z,64.13
2023-01-17T12:28:44.514Z,64.45
2023-01-17T12:32:05.861Z,64.46
2023-01-17T12:34:43.554Z,64.18
2023-01-17T12:37:37.271Z,64.00
2023-01-17T12:40:24.577Z,63.59
2023-01-17T12:43:12.798Z,63.84
2023-01-17T12:45:43.927Z,63.69
2023-01-17T12:48:15.834Z,63.80
2023-01-17T12:51:01.439Z,63.58
2023-01-17T12:54:16.435Z,63.55
2023-01-17T12:57:02.635Z,63.78
2023-01-17T13:00:10.488Z,64.08
2023-01-17T13:02:52.365Z,63.84
2023-01-17T13:05:32.439Z,63.67
2023-01-17T13:08:34.801Z,63.67
2023-01-17T13:11:18.558Z,63.46
2023-01-17T13:13:47.235Z,63.47
2023-01-17T13:16:43.412Z,63.32
2023-01-17T13:19:33.557Z,63.53
2023-01-17T13:22:03.483Z,63.44
2023-01-17T13:24:45.090Z,63.21
2023-01-17T13:27:59.022Z,63.36
2023-01-17T13:31:05.269Z,62.92
2023-01-17T13:33:57.571Z,62.89
2023-01-17T13:36:40.769Z,62.72
2023-01-17T13:39:47.389Z,63.18
2023-01-17T13:42:23.801Z,63.01
2023-01-17T13:44:50.852Z,63.00
2023-01-17T13:47:17.475Z,62.57
2023-01-17T13:49:53.340Z,62.42
2023-01-17T13:52:19.987Z,62.38
2023-01-17T13:55:04.861Z,61.64
2023-01-17T13:57:43.222Z,61.58
2023-01-17T14:00:21.329Z,61.63
2023-01-17T14:02:50.333Z,61.36
2023-01-17T14:05:22.846Z,61.40
2023-01-17T14:07:57.104Z,61.24
2023-01-17T14:10:29.432Z,62.14
2023-01-17T14:12:56.930Z,61.97
2023-01-17T14:15:29.606Z,61.27
2023-01-17T14:18:03.099Z,61.37
2023-01-17T14:20:48.150Z,61.38
2023-01-17T14:23:27.448Z,61.15
2023-01-17T14:25:57.536Z,61.07
2023-01-17T14:28:32.412Z,61.16
2023-01-17T14:31:00.979Z,61.08
2023-01-17T14:33:37.335Z,60.94
2023-01-17T14:36:28.034Z,61.08
2023-01-17T14:38:54.983Z,60.95
2023-01-17T14:41:29.364Z,61.01
2023-01-17T14:43:59.491Z,61.08
2023-01-17T14:46:34.156Z,60.79
2023-01-17T14:49:16.515Z,60.92
2023-01-17T14:51:43.327Z,61.12
2023-01-17T14:54:21.917Z,60.96
2023-01-17T14:56:48.669Z,60.86
2023-01-17T14:59:22.287Z,60.88
2023-01-17T15:02:07.104Z,61.03
2023-01-17T15:04:39.013Z,60.99
2023-01-17T15:07:05.836Z,61.05
2023-01-17T15:09:36.518Z,60.91
2023-01-17T15:12:04.084Z,60.89
2023-01-17T15:14:39.959Z,60.78
2023-01-17T15:17:17.543Z,61.01
2023-01-17T15:19:48.361Z,60.85
2023-01-17T15:22:16.180Z,60.92
2023-01-17T15:24:44.632Z,61.19
2023-01-17T15:27:16.847Z,60.99
2023-01-17T15:29:45.506Z,60.93
2023-01-17T15:32:32.675Z,61.17
2023-01-17T15:35:02.413Z,60.76
2023-01-17T15:37:40.487Z,60.94
2023-01-17T15:40:23.781Z,60.85
2023-01-17T15:43:00.810Z,61.11
2023-01-17T15:45:31.077Z,61.40
2023-01-17T15:48:18.411Z,61.58
2023-01-17T15:50:45.568Z,61.21
2023-01-17T15:53:32.081Z,61.42
2023-01-17T15:56:00.172Z,61.16
2023-01-17T15:58:30.033Z,61.31
2023-01-17T16:00:57.273Z,61.40
2023-01-17T16:03:29.302Z,61.46
2023-01-17T16:06:00.025Z,61.50
2023-01-17T16:08:39.766Z,61.54
2023-01-17T16:11:08.424Z,61.51
2023-01-17T16:13:39.099Z,61.83
2023-01-17T16:16:22.312Z,61.38
2023-01-17T16:19:00.211Z,61.57
2023-01-17T16:21:32.553Z,61.97
2023-01-17T16:24:00.423Z,62.10
2023-01-17T16:26:28.985Z,61.73
2023-01-17T16:28:55.791Z,62.05
2023-01-17T16:31:22.631Z,61.87
2023-01-17T16:33:51.178Z,62.01
2023-01-17T16:36:20.667Z,61.88
2023-01-17T16:38:51.469Z,61.56
2023-01-17T16:41:19.239Z,62.01
2023-01-17T16:43:48.101Z,62.03
2023-01-17T16:46:15.493Z,61.76
2023-01-17T16:48:42.307Z,62.31
2023-01-17T16:51:09.095Z,61.92
2023-01-17T16:53:36.990Z,61.72
2023-01-17T16:56:12.140Z,61.79
2023-01-17T16:58:39.422Z,61.96
2023-01-17T17:01:15.961Z,62.23
2023-01-17T17:03:43.931Z,62.15
2023-01-17T17:06:11.517Z,62.07
2023-01-17T17:08:39.542Z,62.32
2023-01-17T17:11:23.034Z,62.42
2023-01-17T17:13:51.369Z,62.00
2023-01-17T17:16:22.044Z,62.26
2023-01-17T17:19:02.271Z,62.38
2023-01-17T17:21:33.234Z,62.15
2023-01-17T17:24:01.420Z,62.19
2023-01-17T17:26:34.914Z,62.75
2023-01-17T17:29:05.285Z,63.02
2023-01-17T17:31:32.467Z,62.67
2023-01-17T17:34:00.996Z,62.75
2023-01-17T17:36:28.307Z,62.29
2023-01-17T17:38:56.776Z,62.38
2023-01-17T17:41:33.133Z,62.37
2023-01-17T17:44:04.120Z,62.49
2023-01-17T17:46:33.559Z,62.57
2023-01-17T17:49:01.239Z,62.78
2023-01-17T17:51:30.545Z,62.97
2023-01-17T17:54:17.743Z,62.91
2023-01-17T17:56:47.183Z,62.81
2023-01-17T17:59:18.346Z,62.48
2023-01-17T18:01:46.422Z,63.17
2023-01-17T18:04:14.101Z,62.97
2023-01-17T18:06:41.737Z,63.01
2023-01-17T18:09:10.763Z,63.06
2023-01-17T18:11:40.020Z,63.13
2023-01-17T18:14:11.269Z,62.98
2023-01-17T18:16:41.786Z,63.37
2023-01-17T18:19:33.603Z,63.07
2023-01-17T18:22:00.485Z,63.34
2023-01-17T18:24:27.707Z,62.87
2023-01-17T18:26:57.188Z,63.06
2023-01-17T18:29:26.103Z,63.05
2023-01-17T18:31:54.270Z,62.72
2023-01-17T18:34:26.912Z,62.65
2023-01-17T18:36:53.934Z,63.02
2023-01-17T18:39:25.217Z,62.72
2023-01-17T18:41:52.496Z,62.92
2023-01-17T18:44:21.931Z,63.42
2023-01-17T18:46:50.712Z,62.95
2023-01-17T18:49:19.183Z,62.84
2023-01-17T18:51:50.271Z,63.26
2023-01-17T18:54:18.534Z,63.07
2023-01-17T18:56:45.330Z,62.89
2023-01-17T18:59:13.886Z,62.87
2023-01-17T19:01:44.441Z,62.57
2023-01-17T19:04:13.326Z,62.79
2023-01-17T19:06:43.517Z,62.98
2023-01-17T19:09:12.744Z,62.90
2023-01-17T19:11:39.964Z,63.13
2023-01-17T19:14:07.309Z,63.23
2023-01-17T19:16:40.659Z,62.95
2023-01-17T19:19:11.478Z,63.20
2023-01-17T19:21:38.442Z,63.16
2023-01-17T19:24:06.827Z,62.82
2023-01-17T19:26:34.051Z,63.10
2023-01-17T19:29:02.604Z,63.00
2023-01-17T19:31:31.640Z,62.99
2023-01-17T19:33:59.713Z,63.11
2023-01-17T19:36:32.143Z,63.58
2023-01-17T19:39:04.778Z,63.59
2023-01-17T19:41:34.173Z,63.63
2023-01-17T19:44:04.624Z,63.56
2023-01-17T19:46:32.336Z,63.69
2023-01-17T19:48:59.740Z,63.07
2023-01-17T19:51:28.258Z,63.53
2023-01-17T19:53:55.245Z,63.13
2023-01-17T19:56:24.849Z,63.26
2023-01-17T19:58:52.283Z,63.53
2023-01-17T20:01:28.309Z,63.05
2023-01-17T20:03:57.610Z,63.67
2023-01-17T20:06:34.484Z,63.03
2023-01-17T20:09:01.727Z,63.78
2023-01-17T20:11:29.106Z,63.27
2023-01-17T20:13:58.531Z,63.11
2023-01-17T20:16:27.847Z,63.48
2023-01-17T20:18:54.844Z,63.71
2023-01-17T20:21:25.477Z,63.63
2023-01-17T20:23:54.265Z,63.57
2023-01-17T20:26:25.052Z,63.65
2023-01-17T20:28:53.231Z,63.39
2023-01-17T20:31:24.057Z,63.64
2023-01-17T20:33:54.155Z,63.61
2023-01-17T20:36:23.669Z,64.00
2023-01-17T20:38:50.899Z,63.40
2023-01-17T20:41:29.967Z,63.39
2023-01-17T20:43:59.191Z,63.68
2023-01-17T20:46:35.320Z,63.45
2023-01-17T20:49:05.319Z,63.29
2023-01-17T20:51:34.366Z,63.22
2023-01-17T20:54:04.802Z,63.61
2023-01-17T20:56:34.681Z,63.93
2023-01-17T20:59:03.906Z,63.64
2023-01-17T21:01:31.790Z,64.02
2023-01-17T21:03:58.723Z,63.28
2023-01-17T21:06:25.677Z,63.72
2023-01-17T21:08:52.865Z,63.60
2023-01-17T21:11:24.522Z,63.57
2023-01-17T21:13:52.394Z,63.80
2023-01-17T21:16:22.868Z,63.25
2023-01-17T21:18:51.480Z,63.52
2023-01-17T21:21:21.966Z,63.81
2023-01-17T21:23:50.899Z,63.89
2023-01-17T21:26:19.378Z,63.71
2023-01-17T21:28:47.902Z,63.25
2023-01-17T21:31:25.712Z,63.78
2023-01-17T21:33:59.116Z,63.49
2023-01-17T21:36:30.843Z,63.70
2023-01-17T21:38:59.636Z,64.08
2023-01-17T21:41:29.078Z,63.81
2023-01-17T21:43:59.075Z,63.78
2023-01-17T21:46:28.299Z,63.34
2023-01-17T21:48:56.699Z,63.67
2023-01-17T21:51:24.208Z,63.64
2023-01-17T21:53:51.106Z,63.46
2023-01-17T21:56:36.233Z,63.65
2023-01-17T21:59:03.076Z,63.78
2023-01-17T22:01:33.194Z,63.70
2023-01-17T22:04:02.801Z,63.52
2023-01-17T22:06:38.454Z,63.57
2023-01-17T22:09:05.800Z,63.93
2023-01-17T22:11:32.667Z,63.69
2023-01-17T22:13:59.577Z,63.71
2023-01-17T22:16:26.481Z,63.68
2023-01-17T22:18:53.281Z,63.73
2023-01-17T22:21:26.361Z,64.01
2023-01-17T22:23:58.897Z,64.62
2023-01-17T22:26:30.801Z,65.07
2023-01-17T22:29:02.249Z,64.84
2023-01-17T22:31:29.080Z,64.92
2023-01-17T22:34:02.251Z,65.27
2023-01-17T22:36:32.082Z,65.26
2023-01-17T22:38:59.016Z,65.18
2023-01-17T22:41:29.747Z,65.32
2023-01-17T22:43:59.302Z,65.29
2023-01-17T22:46:29.356Z,65.36
2023-01-17T22:48:56.876Z,64.92
2023-01-17T22:51:26.061Z,65.27
2023-01-17T22:53:56.138Z,65.08
2023-01-17T22:56:27.915Z,65.09
2023-01-17T22:58:54.756Z,65.24
2023-01-17T23:01:25.464Z,65.33
2023-01-17T23:03:56.126Z,64.71
2023-01-17T23:06:27.673Z,65.09
2023-01-17T23:08:57.350Z,64.74
2023-01-17T23:11:38.970Z,64.68
2023-01-17T23:14:09.403Z,64.95
2023-01-17T23:16:57.385Z,64.87
2023-01-17T23:19:27.002Z,64.53
2023-01-17T23:22:17.316Z,64.77
2023-01-17T23:24:53.551Z,64.81
2023-01-17T23:27:55.489Z,64.62
2023-01-17T23:30:29.108Z,64.68
2023-01-17T23:32:59.454Z,64.81
2023-01-17T23:35:29.947Z,64.65
2023-01-17T23:38:15.733Z,64.65
2023-01-17T23:40:43.618Z,64.25
2023-01-17T23:43:23.184Z,64.54
2023-01-17T23:45:51.946Z,64.34
2023-01-17T23:48:20.530Z,64.25
2023-01-17T23:50:48.412Z,64.19
2023-01-17T23:53:22.313Z,64.24
2023-01-17T23:55:52.460Z,64.09
2023-01-17T23:58:21.789Z,64.58
